createdAt,value
2023-09-14T00:02:08.972Z,98581.56
2023-09-14T00:05:13.834Z,98580.75
2023-09-14T00:08:16.635Z,98580.41
2023-09-14T00:11:20.831Z,98581.34
2023-09-14T00:14:23.880Z,98583.94
2023-09-14T00:17:26.781Z,98571.59
2023-09-14T00:20:32.623Z,98582.88
2023-09-14T00:23:35.515Z,98574.91
2023-09-14T00:26:38.269Z,98577.56
2023-09-14T00:29:41.124Z,98572.88
2023-09-14T00:32:44.123Z,98578.59
2023-09-14T00:35:49.005Z,98580.03
2023-09-14T00:38:51.863Z,98585.78
2023-09-14T00:41:54.876Z,98586.88
2023-09-14T00:44:57.805Z,98594.38
2023-09-14T00:48:03.454Z,98589.94
2023-09-14T00:51:09.008Z,98591.88
2023-09-14T00:54:12.855Z,98589.75
2023-09-14T00:57:16.962Z,98591.22
2023-09-14T01:00:20.202Z,98592.63
2023-09-14T01:03:25.153Z,98589.91
2023-09-14T01:06:29.761Z,98592.31
2023-09-14T01:09:33.119Z,98593.72
2023-09-14T01:12:36.241Z,98592.94
2023-09-14T01:15:43.003Z,98591.47
2023-09-14T01:18:53.482Z,98590.47
2023-09-14T01:22:17.906Z,98587.75
2023-09-14T01:25:26.156Z,98588.88
2023-09-14T01:28:30.734Z,98590.31
2023-09-14T01:31:33.824Z,98588.69
2023-09-14T01:34:36.903Z,98592.81
2023-09-14T01:37:40.381Z,98592.47
2023-09-14T01:40:46.428Z,98595.66
2023-09-14T01:43:53.553Z,98586.41
2023-09-14T01:46:56.937Z,98593.44
2023-09-14T01:49:59.891Z,98590.41
2023-09-14T01:53:02.868Z,98592.53
2023-09-14T01:56:06.077Z,98590.59
2023-09-14T01:59:10.425Z,98599.84
2023-09-14T02:02:13.515Z,98597.47
2023-09-14T02:05:16.565Z,98598.38
2023-09-14T02:08:19.353Z,98597.25
2023-09-14T02:11:22.246Z,98598.38
2023-09-14T02:14:26.481Z,98601.09
2023-09-14T02:17:30.922Z,98607.44
2023-09-14T02:20:36.097Z,98601.84
2023-09-14T02:23:38.905Z,98601.78
2023-09-14T02:26:41.688Z,98596.78
2023-09-14T02:29:45.964Z,98593.69
2023-09-14T02:32:48.874Z,98604.94
2023-09-14T02:35:52.522Z,98607.16
2023-09-14T02:38:55.518Z,98609.25
2023-09-14T02:41:58.290Z,98607.47
2023-09-14T02:45:02.437Z,98599.56
2023-09-14T02:48:05.681Z,98599.69
2023-09-14T02:51:08.602Z,98597.81
2023-09-14T02:54:11.350Z,98603.84
2023-09-14T02:57:14.282Z,98599.31
2023-09-14T03:00:19.325Z,98607.47
2023-09-14T03:03:22.240Z,98606.78
2023-09-14T03:06:25.416Z,98602.97
2023-09-14T03:09:28.147Z,98609.56
2023-09-14T03:12:31.081Z,98612.19
2023-09-14T03:15:36.282Z,98613.19
2023-09-14T03:18:39.284Z,98624.03
2023-09-14T03:21:42.254Z,98627.34
2023-09-14T03:24:45.102Z,98630.47
2023-09-14T03:27:50.164Z,98625.34
2023-09-14T03:30:54.537Z,98627.25
2023-09-14T03:33:57.446Z,98622.22
2023-09-14T03:37:00.280Z,98629.34
2023-09-14T03:40:03.087Z,98627.28
2023-09-14T03:43:06.312Z,98629.88
2023-09-14T03:46:11.314Z,98628.88
2023-09-14T03:49:14.323Z,98623.56
2023-09-14T03:52:17.107Z,98622.88
2023-09-14T03:55:20.288Z,98619.75
2023-09-14T03:58:24.212Z,98625.19
2023-09-14T04:01:28.455Z,98626.56
2023-09-14T04:04:31.412Z,98623.94
2023-09-14T04:07:34.301Z,98625.75
2023-09-14T04:10:38.910Z,98623.94
2023-09-14T04:13:41.829Z,98632.50
2023-09-14T04:16:46.294Z,98631.69
2023-09-14T04:19:49.157Z,98637.22
2023-09-14T04:22:52.406Z,98637.28
2023-09-14T04:25:55.986Z,98644.13
2023-09-14T04:28:58.948Z,98639.31
2023-09-14T04:32:04.664Z,98636.09
2023-09-14T04:35:09.229Z,98640.13
2023-09-14T04:38:12.682Z,98647.94
2023-09-14T04:41:15.686Z,98652.44
2023-09-14T04:44:18.668Z,98650.84
2023-09-14T04:47:22.761Z,98657.38
2023-09-14T04:50:25.646Z,98657.25
2023-09-14T04:53:29.392Z,98657.94
2023-09-14T04:56:32.415Z,98652.75
2023-09-14T04:59:35.103Z,98655.94
2023-09-14T05:02:40.160Z,98648.03
2023-09-14T05:05:43.240Z,98654.16
2023-09-14T05:08:46.299Z,98648.03
2023-09-14T05:11:49.256Z,98651.81
2023-09-14T05:14:52.046Z,98659.88
2023-09-14T05:17:56.877Z,98663.78
2023-09-14T05:20:59.801Z,98663.16
2023-09-14T05:24:02.772Z,98665.97
2023-09-14T05:27:06.324Z,98662.31
2023-09-14T05:30:11.199Z,98663.50
2023-09-14T05:33:15.999Z,98669.34
2023-09-14T05:36:18.812Z,98666.81
2023-09-14T05:39:21.898Z,98668.41
2023-09-14T05:42:24.916Z,98669.88
2023-09-14T05:45:28.336Z,98675.03
2023-09-14T05:48:32.699Z,98672.72
2023-09-14T05:51:35.603Z,98672.72
2023-09-14T05:54:38.540Z,98675.94
2023-09-14T05:57:41.543Z,98680.94
2023-09-14T06:00:44.759Z,98681.44
2023-09-14T06:03:49.559Z,98682.91
2023-09-14T06:06:52.518Z,98679.28
2023-09-14T06:09:55.487Z,98682.78
2023-09-14T06:12:58.449Z,98685.50
2023-09-14T06:16:01.497Z,98691.94
2023-09-14T06:19:05.969Z,98696.84
2023-09-14T06:22:10.049Z,98694.63
2023-09-14T06:25:12.877Z,98698.94
2023-09-14T06:28:15.854Z,98705.19
2023-09-14T06:31:18.694Z,98705.69
2023-09-14T06:34:22.854Z,98706.00
2023-09-14T06:37:25.666Z,98709.97
2023-09-14T06:40:28.644Z,98703.88
2023-09-14T06:43:31.591Z,98705.34
2023-09-14T06:46:34.526Z,98707.56
2023-09-14T06:49:38.692Z,98706.00
2023-09-14T06:52:41.586Z,98704.56
2023-09-14T06:55:44.611Z,98702.16
2023-09-14T06:58:47.413Z,98696.72
2023-09-14T07:01:51.227Z,98702.66
2023-09-14T07:04:56.157Z,98704.88
2023-09-14T07:07:58.939Z,98704.13
2023-09-14T07:11:01.931Z,98705.63
2023-09-14T07:14:05.112Z,98707.69
2023-09-14T07:17:08.432Z,98712.03
2023-09-14T07:20:13.470Z,98713.53
2023-09-14T07:23:16.491Z,98709.88
2023-09-14T07:26:19.273Z,98709.94
2023-09-14T07:29:22.852Z,98709.19
2023-09-14T07:32:25.668Z,98712.75
2023-09-14T07:35:29.806Z,98709.63
2023-09-14T07:38:32.711Z,98714.91
2023-09-14T07:41:35.753Z,98724.06
2023-09-14T07:44:38.606Z,98719.47
2023-09-14T07:47:41.729Z,98722.22
2023-09-14T07:50:46.118Z,98732.16
2023-09-14T07:53:48.954Z,98731.22
2023-09-14T07:56:51.708Z,98736.31
2023-09-14T07:59:54.552Z,98736.22
2023-09-14T08:02:57.365Z,98737.78
2023-09-14T08:06:03.117Z,98739.91
2023-09-14T08:09:06.035Z,98734.63
2023-09-14T08:12:09.288Z,98740.25
2023-09-14T08:15:13.438Z,98742.50
2023-09-14T08:18:16.480Z,98745.72
2023-09-14T08:21:21.029Z,98740.63
2023-09-14T08:24:24.011Z,98744.47
2023-09-14T08:27:27.792Z,98743.06
2023-09-14T08:30:30.635Z,98749.59
2023-09-14T08:33:33.942Z,98755.19
2023-09-14T08:36:40.545Z,98749.97
2023-09-14T08:39:43.380Z,98751.53
2023-09-14T08:42:49.740Z,98750.44
2023-09-14T08:45:54.915Z,98753.06
2023-09-14T08:49:00.901Z,98755.97
2023-09-14T08:52:09.468Z,98755.66
2023-09-14T08:55:13.854Z,98752.31
2023-09-14T08:58:18.413Z,98765.44
2023-09-14T09:01:21.367Z,98752.00
2023-09-14T09:04:27.559Z,98746.06
2023-09-14T09:07:32.528Z,98752.81
2023-09-14T09:10:35.872Z,98747.03
2023-09-14T09:13:44.387Z,98746.41
2023-09-14T09:16:47.417Z,98746.41
2023-09-14T09:19:54.031Z,98739.19
2023-09-14T09:23:00.962Z,98747.19
2023-09-14T09:26:04.735Z,98744.81
2023-09-14T09:29:17.763Z,98734.88
2023-09-14T09:32:23.856Z,98739.81
2023-09-14T09:35:28.230Z,98737.09
2023-09-14T09:38:41.377Z,98736.31
2023-09-14T09:41:47.487Z,98742.72
2023-09-14T09:44:50.562Z,98739.97
2023-09-14T09:47:54.609Z,98749.63
2023-09-14T09:50:57.961Z,98745.44
2023-09-14T09:54:06.032Z,98747.03
2023-09-14T09:57:09.325Z,98744.31
2023-09-14T10:00:14.504Z,98746.88
2023-09-14T10:03:26.362Z,98740.78
2023-09-14T10:06:29.260Z,98747.03
2023-09-14T10:09:36.242Z,98740.44
2023-09-14T10:12:40.989Z,98736.94
2023-09-14T10:15:44.455Z,98734.06
2023-09-14T10:18:49.173Z,98739.00
2023-09-14T10:21:54.824Z,98738.38
2023-09-14T10:25:00.965Z,98737.41
2023-09-14T10:28:06.348Z,98736.09
2023-09-14T10:31:11.942Z,98737.69
2023-09-14T10:34:19.404Z,98730.78
2023-09-14T10:37:22.594Z,98724.94
2023-09-14T10:40:29.868Z,98728.59
2023-09-14T10:43:33.428Z,98727.16
2023-09-14T10:46:42.830Z,98721.69
2023-09-14T10:49:47.137Z,98721.97
2023-09-14T10:52:50.159Z,98714.84
2023-09-14T10:55:54.671Z,98718.09
2023-09-14T10:58:57.528Z,98718.09
2023-09-14T11:02:15.447Z,98699.25
2023-09-14T11:05:25.694Z,98703.44
2023-09-14T11:08:31.854Z,98701.69
2023-09-14T11:11:41.685Z,98704.59
2023-09-14T11:15:15.509Z,98701.88
2023-09-14T11:18:19.194Z,98695.72
2023-09-14T11:21:52.279Z,98690.00
2023-09-14T11:24:56.466Z,98693.53
2023-09-14T11:28:01.194Z,98683.06
2023-09-14T11:31:04.768Z,98684.03
2023-09-14T11:34:15.203Z,98684.25
2023-09-14T11:37:20.555Z,98671.66
2023-09-14T11:40:35.718Z,98676.69
2023-09-14T11:44:36.551Z,98669.81
2023-09-14T11:47:35.003Z,98658.84
2023-09-14T11:50:45.836Z,98669.44
2023-09-14T11:53:49.786Z,98668.16
2023-09-14T11:56:56.838Z,98662.22
2023-09-14T12:00:01.654Z,98659.09
2023-09-14T12:03:05.155Z,98656.16
2023-09-14T12:06:09.202Z,98656.63
2023-09-14T12:09:25.396Z,98658.22
2023-09-14T12:12:35.870Z,98650.59
2023-09-14T12:15:41.023Z,98651.38
2023-09-14T12:18:44.446Z,98642.34
2023-09-14T12:21:47.513Z,98645.00
2023-09-14T12:24:51.598Z,98643.44
2023-09-14T12:27:54.658Z,98646.22
2023-09-14T12:30:59.145Z,98633.66
2023-09-14T12:34:02.123Z,98633.69
2023-09-14T12:37:05.631Z,98638.03
2023-09-14T12:40:11.667Z,98626.94
2023-09-14T12:43:18.966Z,98626.50
2023-09-14T12:46:25.550Z,98623.03
2023-09-14T12:49:28.891Z,98620.44
2023-09-14T12:52:33.274Z,98620.59
2023-09-14T12:55:40.141Z,98604.72
2023-09-14T12:58:43.299Z,98602.34
2023-09-14T13:01:47.536Z,98606.22
2023-09-14T13:04:50.465Z,98604.19
2023-09-14T13:07:55.912Z,98600.06
2023-09-14T13:10:58.938Z,98594.22
2023-09-14T13:14:01.893Z,98594.00
2023-09-14T13:17:06.136Z,98591.25
2023-09-14T13:20:11.676Z,98599.66
2023-09-14T13:23:14.897Z,98584.63
2023-09-14T13:26:17.742Z,98586.84
2023-09-14T13:29:20.478Z,98589.00
2023-09-14T13:32:25.169Z,98588.72
2023-09-14T13:35:29.228Z,98576.88
2023-09-14T13:38:32.219Z,98577.16
2023-09-14T13:41:35.355Z,98575.00
2023-09-14T13:44:38.199Z,98567.84
2023-09-14T13:47:42.516Z,98565.38
2023-09-14T13:50:45.540Z,98568.31
2023-09-14T13:53:48.715Z,98565.66
2023-09-14T13:56:51.734Z,98569.59
2023-09-14T13:59:54.790Z,98553.88
2023-09-14T14:03:09.994Z,98554.44
2023-09-14T14:06:12.882Z,98543.13
2023-09-14T14:09:18.536Z,98539.16
2023-09-14T14:12:21.332Z,98552.34
2023-09-14T14:15:25.245Z,98549.56
2023-09-14T14:18:29.441Z,98540.22
2023-09-14T14:21:32.189Z,98548.66
2023-09-14T14:24:36.171Z,98539.91
2023-09-14T14:27:42.210Z,98534.03
2023-09-14T14:30:45.526Z,98533.81
2023-09-14T14:33:49.821Z,98537.22
2023-09-14T14:36:52.769Z,98536.59
2023-09-14T14:39:55.883Z,98533.19
2023-09-14T14:42:59.151Z,98525.13
2023-09-14T14:46:02.502Z,98533.72
2023-09-14T14:49:07.769Z,98520.56
2023-09-14T14:52:10.688Z,98522.97
2023-09-14T14:55:13.645Z,98520.19
2023-09-14T14:58:16.543Z,98525.75
2023-09-14T15:01:19.421Z,98523.28
2023-09-14T15:04:23.544Z,98513.56
2023-09-14T15:07:26.335Z,98515.66
2023-09-14T15:10:29.197Z,98521.00
2023-09-14T15:13:32.461Z,98517.41
2023-09-14T15:16:35.408Z,98510.31
2023-09-14T15:19:39.712Z,98504.81
2023-09-14T15:22:42.968Z,98509.53
2023-09-14T15:25:47.942Z,98516.31
2023-09-14T15:28:51.168Z,98521.56
2023-09-14T15:31:54.344Z,98520.00
2023-09-14T15:34:58.730Z,98512.09
2023-09-14T15:38:01.700Z,98516.34
2023-09-14T15:41:04.875Z,98517.03
2023-09-14T15:44:09.196Z,98512.19
2023-09-14T15:47:12.115Z,98513.22
2023-09-14T15:50:16.524Z,98512.56
2023-09-14T15:53:19.821Z,98514.38
2023-09-14T15:56:23.169Z,98511.06
2023-09-14T15:59:26.020Z,98508.91
2023-09-14T16:02:29.164Z,98502.50
2023-09-14T16:05:33.644Z,98514.47
2023-09-14T16:08:36.690Z,98509.53
2023-09-14T16:11:39.634Z,98507.34
2023-09-14T16:14:42.929Z,98510.97
2023-09-14T16:17:45.910Z,98503.13
2023-09-14T16:20:50.348Z,98506.88
2023-09-14T16:23:53.164Z,98506.81
2023-09-14T16:26:56.047Z,98506.47
2023-09-14T16:29:58.999Z,98512.78
2023-09-14T16:33:02.084Z,98512.81
2023-09-14T16:36:07.022Z,98507.38
2023-09-14T16:39:09.824Z,98519.47
2023-09-14T16:42:12.814Z,98518.09
2023-09-14T16:45:15.810Z,98521.50
2023-09-14T16:48:18.791Z,98520.22
2023-09-14T16:51:24.928Z,98519.63
2023-09-14T16:54:30.068Z,98525.25
2023-09-14T16:57:33.148Z,98521.56
2023-09-14T17:00:38.624Z,98530.75
2023-09-14T17:03:41.814Z,98528.28
2023-09-14T17:06:46.509Z,98529.38
2023-09-14T17:09:49.488Z,98522.72
2023-09-14T17:12:54.467Z,98528.41
2023-09-14T17:15:57.602Z,98531.06
2023-09-14T17:19:00.597Z,98529.38
2023-09-14T17:22:06.432Z,98524.16
2023-09-14T17:25:10.180Z,98530.78
2023-09-14T17:28:13.126Z,98530.72
2023-09-14T17:31:16.706Z,98521.78
2023-09-14T17:34:20.909Z,98526.78
2023-09-14T17:37:26.268Z,98518.97
2023-09-14T17:40:29.136Z,98526.53
2023-09-14T17:43:32.378Z,98520.31
2023-09-14T17:46:35.801Z,98525.63
2023-09-14T17:49:38.735Z,98529.16
2023-09-14T17:52:43.712Z,98534.78
2023-09-14T17:55:46.617Z,98528.72
2023-09-14T17:58:50.577Z,98534.13
2023-09-14T18:01:53.384Z,98534.78
2023-09-14T18:04:56.179Z,98537.00
2023-09-14T18:08:00.983Z,98537.50
2023-09-14T18:11:04.274Z,98541.19
2023-09-14T18:14:07.709Z,98545.50
2023-09-14T18:17:10.911Z,98553.81
2023-09-14T18:20:16.878Z,98555.56
2023-09-14T18:23:28.840Z,98558.75
2023-09-14T18:26:32.804Z,98554.72
2023-09-14T18:29:38.457Z,98562.09
2023-09-14T18:32:52.527Z,98568.47
2023-09-14T18:35:56.116Z,98566.06
2023-09-14T18:39:00.304Z,98573.84
2023-09-14T18:42:03.479Z,98577.03
2023-09-14T18:45:07.686Z,98569.31
2023-09-14T18:48:13.728Z,98570.88
2023-09-14T18:51:17.821Z,98571.19
2023-09-14T18:54:22.271Z,98570.72
2023-09-14T18:57:25.281Z,98567.50
2023-09-14T19:00:28.136Z,98575.00
2023-09-14T19:03:31.257Z,98571.13
2023-09-14T19:06:34.273Z,98579.28
2023-09-14T19:09:38.592Z,98579.72
2023-09-14T19:12:43.542Z,98577.44
2023-09-14T19:15:46.744Z,98573.25
2023-09-14T19:18:50.127Z,98576.25
2023-09-14T19:21:53.927Z,98583.41
2023-09-14T19:24:58.702Z,98574.38
2023-09-14T19:28:01.881Z,98568.44
2023-09-14T19:31:05.344Z,98571.25
2023-09-14T19:34:08.594Z,98574.66
2023-09-14T19:37:12.558Z,98575.91
2023-09-14T19:40:16.986Z,98578.59
2023-09-14T19:43:19.988Z,98584.41
2023-09-14T19:46:23.026Z,98587.56
2023-09-14T19:49:26.109Z,98588.59
2023-09-14T19:52:29.662Z,98583.72
2023-09-14T19:55:34.022Z,98590.25
2023-09-14T19:58:37.891Z,98591.84
2023-09-14T20:01:41.310Z,98586.13
2023-09-14T20:04:44.095Z,98573.88
2023-09-14T20:07:47.997Z,98582.72
2023-09-14T20:10:52.603Z,98576.34
2023-09-14T20:13:55.843Z,98570.41
2023-09-14T20:16:59.033Z,98574.63
2023-09-14T20:20:06.553Z,98571.53
2023-09-14T20:23:10.908Z,98571.72
2023-09-14T20:26:15.192Z,98571.72
2023-09-14T20:29:17.908Z,98577.28
2023-09-14T20:32:20.785Z,98576.09
2023-09-14T20:35:23.900Z,98567.56
2023-09-14T20:38:27.068Z,98577.19
2023-09-14T20:41:33.526Z,98576.44
2023-09-14T20:44:36.490Z,98577.91
2023-09-14T20:47:40.512Z,98572.63
2023-09-14T20:50:43.866Z,98572.72
2023-09-14T20:53:47.101Z,98556.97
2023-09-14T20:56:51.324Z,98562.78
2023-09-14T20:59:54.711Z,98550.34
2023-09-14T21:02:57.724Z,98554.78
2023-09-14T21:06:01.571Z,98555.38
2023-09-14T21:09:04.320Z,98549.53
2023-09-14T21:12:09.586Z,98554.25
2023-09-14T21:15:12.574Z,98550.25
2023-09-14T21:18:15.328Z,98540.22
2023-09-14T21:21:19.368Z,98537.09
2023-09-14T21:24:22.257Z,98536.91
2023-09-14T21:27:27.699Z,98532.88
2023-09-14T21:30:30.680Z,98535.81
2023-09-14T21:33:33.609Z,98539.72
2023-09-14T21:36:36.530Z,98535.91
2023-09-14T21:39:39.420Z,98531.41
2023-09-14T21:42:43.670Z,98532.47
2023-09-14T21:45:49.881Z,98524.69
2023-09-14T21:48:52.879Z,98536.19
2023-09-14T21:51:55.634Z,98524.25
2023-09-14T21:54:58.689Z,98518.47
2023-09-14T21:58:03.051Z,98524.38
2023-09-14T22:01:05.912Z,98522.28
2023-09-14T22:04:08.740Z,98517.88
2023-09-14T22:07:11.758Z,98519.25
2023-09-14T22:10:14.761Z,98521.06
2023-09-14T22:13:19.757Z,98523.97
2023-09-14T22:16:22.626Z,98522.97
2023-09-14T22:19:26.827Z,98525.75
2023-09-14T22:22:29.553Z,98515.41
2023-09-14T22:25:34.196Z,98519.13
2023-09-14T22:28:38.549Z,98507.09
2023-09-14T22:31:41.434Z,98517.84
2023-09-14T22:34:44.488Z,98512.91
2023-09-14T22:37:51.246Z,98511.50
2023-09-14T22:40:54.522Z,98506.38
2023-09-14T22:43:58.692Z,98509.69
2023-09-14T22:47:01.569Z,98511.59
2023-09-14T22:50:05.245Z,98507.28
2023-09-14T22:53:08.251Z,98508.19
2023-09-14T22:56:16.063Z,98503.06
2023-09-14T22:59:20.977Z,98513.22
2023-09-14T23:02:23.909Z,98506.19
2023-09-14T23:05:27.980Z,98496.50
2023-09-14T23:08:30.835Z,98494.91
2023-09-14T23:11:41.049Z,98486.69
2023-09-14T23:14:45.340Z,98486.78
2023-09-14T23:17:48.567Z,98489.06
2023-09-14T23:20:52.669Z,98485.63
2023-09-14T23:23:56.667Z,98476.09
2023-09-14T23:27:00.128Z,98470.78
2023-09-14T23:30:06.929Z,98471.56
2023-09-14T23:33:09.614Z,98471.00
2023-09-14T23:36:13.809Z,98472.28
2023-09-14T23:39:18.995Z,98477.41
2023-09-14T23:42:21.770Z,98470.59
2023-09-14T23:45:26.699Z,98465.72
2023-09-14T23:48:29.665Z,98462.66
2023-09-14T23:51:32.694Z,98467.03
2023-09-14T23:54:35.554Z,98461.88
2023-09-14T23:57:38.688Z,98465.09
